Time;durP1;ratioP1;P1;durP2;ratioP2;P2;SDS_P1;SDS_P2;PMS_P1;PMS_P2;Temp;Humidity;BMP_temperature;BMP_pressure;BME280_temperature;BME280_humidity;BME280_pressure;Samples;Min_cycle;Max_cycle;Signal;HPM_P1;HPM_P2
2021/10/14 00:01:40;;;;;;;7.80;3.38;;;9.10;99.90;;;;;;5036823;28;20025;-67
2021/10/14 00:04:08;;;;;;;8.63;3.78;;;9.10;99.90;;;;;;5036381;28;20053;-68
2021/10/14 00:06:35;;;;;;;10.07;4.97;;;9.10;99.90;;;;;;5037593;28;20106;-68
2021/10/14 00:09:03;;;;;;;8.35;4.97;;;9.10;99.90;;;;;;5037465;28;20151;-68
2021/10/14 00:11:30;;;;;;;8.30;4.38;;;9.10;99.90;;;;;;5037226;28;20100;-67
2021/10/14 00:13:59;;;;;;;6.80;3.95;;;9.10;99.90;;;;;;5036029;28;20440;-67
2021/10/14 00:16:27;;;;;;;10.00;4.32;;;9.10;99.90;;;;;;5038030;28;20026;-67
2021/10/14 00:18:54;;;;;;;7.85;3.90;;;9.10;99.90;;;;;;5037751;28;20033;-67
2021/10/14 00:21:22;;;;;;;8.65;4.63;;;9.00;99.90;;;;;;5037777;28;20051;-67
2021/10/14 00:23:49;;;;;;;9.18;4.97;;;9.00;99.90;;;;;;5037962;28;20298;-67
2021/10/14 00:26:17;;;;;;;7.47;4.50;;;9.00;99.90;;;;;;5036752;28;20025;-67
2021/10/14 00:28:44;;;;;;;6.90;4.32;;;9.00;99.90;;;;;;5037571;28;20083;-67
2021/10/14 00:31:11;;;;;;;8.02;4.60;;;9.00;99.90;;;;;;5038171;28;20109;-67
2021/10/14 00:33:38;;;;;;;6.35;4.13;;;9.00;99.90;;;;;;5038041;28;20017;-68
2021/10/14 00:36:06;;;;;;;7.93;5.07;;;9.00;99.90;;;;;;5037067;28;20321;-67
2021/10/14 00:38:33;;;;;;;6.97;3.75;;;9.00;99.90;;;;;;5036577;28;20025;-67
2021/10/14 00:41:01;;;;;;;6.00;4.13;;;9.00;99.90;;;;;;5037108;28;20021;-67
2021/10/14 00:43:29;;;;;;;5.78;3.90;;;9.00;99.90;;;;;;5035500;28;20029;-67
2021/10/14 00:45:56;;;;;;;9.82;5.45;;;9.00;99.90;;;;;;5037030;28;20033;-68
2021/10/14 00:48:23;;;;;;;8.15;3.88;;;9.00;99.90;;;;;;5037101;28;20416;-67
2021/10/14 00:50:50;;;;;;;9.45;5.30;;;9.00;99.90;;;;;;5036952;28;20397;-68
2021/10/14 00:53:18;;;;;;;8.68;5.30;;;9.00;99.90;;;;;;5036407;28;20364;-67
2021/10/14 00:55:45;;;;;;;9.02;5.05;;;9.00;99.90;;;;;;5036937;28;20071;-68
2021/10/14 00:58:14;;;;;;;7.47;4.40;;;9.00;99.90;;;;;;5037406;28;20464;-68
2021/10/14 01:00:41;;;;;;;8.85;4.25;;;9.00;99.90;;;;;;5037816;28;20021;-67
2021/10/14 01:03:09;;;;;;;5.70;3.50;;;9.00;99.90;;;;;;5037555;28;20105;-67
2021/10/14 01:05:36;;;;;;;6.32;3.78;;;9.00;99.90;;;;;;5037095;28;20051;-67
2021/10/14 01:08:04;;;;;;;7.85;4.78;;;9.00;99.90;;;;;;5037428;28;20115;-68
2021/10/14 01:10:32;;;;;;;10.00;5.40;;;9.00;99.90;;;;;;5037611;28;20022;-68
2021/10/14 01:12:59;;;;;;;9.75;4.75;;;9.00;99.90;;;;;;5037736;28;20024;-67
2021/10/14 01:15:27;;;;;;;7.45;5.20;;;9.00;99.90;;;;;;5041080;28;20073;-67
2021/10/14 01:17:57;;;;;;;7.18;4.82;;;9.00;99.90;;;;;;5040762;28;20021;-67
2021/10/14 01:20:26;;;;;;;9.02;4.93;;;9.00;99.90;;;;;;5040602;28;20022;-67
2021/10/14 01:22:53;;;;;;;8.55;5.15;;;9.00;99.90;;;;;;5040130;28;20383;-67
2021/10/14 01:25:21;;;;;;;9.27;5.90;;;9.00;99.90;;;;;;5040582;28;20100;-67
2021/10/14 01:27:49;;;;;;;8.93;5.68;;;9.00;99.90;;;;;;5039603;28;20032;-67
2021/10/14 01:30:17;;;;;;;8.98;5.80;;;9.00;99.90;;;;;;5040138;28;20025;-67
2021/10/14 01:32:47;;;;;;;7.93;5.65;;;9.00;99.90;;;;;;5040672;28;20024;-67
2021/10/14 01:35:16;;;;;;;8.48;5.45;;;9.00;99.90;;;;;;5039872;28;20022;-67
2021/10/14 01:37:44;;;;;;;9.73;5.68;;;9.00;99.90;;;;;;5039890;28;20030;-67
2021/10/14 01:40:12;;;;;;;8.52;5.47;;;9.00;99.90;;;;;;5039210;28;20112;-67
2021/10/14 01:42:40;;;;;;;8.75;5.90;;;9.00;99.90;;;;;;5040865;28;20025;-67
2021/10/14 01:45:08;;;;;;;8.43;5.55;;;9.00;99.90;;;;;;5041134;28;20391;-67
2021/10/14 01:47:35;;;;;;;7.93;5.25;;;9.00;99.90;;;;;;5040651;28;20108;-67
2021/10/14 01:50:04;;;;;;;11.20;6.78;;;9.00;99.90;;;;;;5039284;28;20043;-67
2021/10/14 01:52:32;;;;;;;9.77;7.00;;;9.10;99.90;;;;;;5039557;28;20017;-67
2021/10/14 01:54:59;;;;;;;11.52;8.05;;;9.10;99.90;;;;;;5040987;28;20021;-67
2021/10/14 01:57:27;;;;;;;11.90;6.82;;;9.10;99.90;;;;;;5040944;28;20429;-67
2021/10/14 01:59:55;;;;;;;9.23;6.45;;;9.10;99.90;;;;;;5040370;28;20021;-67
2021/10/14 02:02:23;;;;;;;9.07;7.25;;;9.10;99.90;;;;;;5040079;28;20071;-67
2021/10/14 02:04:50;;;;;;;9.85;6.68;;;9.10;99.90;;;;;;5039328;28;20361;-67
2021/10/14 02:07:17;;;;;;;12.48;7.60;;;9.10;99.90;;;;;;5039873;28;20118;-67
2021/10/14 02:09:45;;;;;;;13.57;8.82;;;9.10;99.90;;;;;;5039211;28;20021;-67
2021/10/14 02:12:12;;;;;;;10.73;7.50;;;9.10;99.90;;;;;;5039935;28;20025;-67
2021/10/14 02:14:40;;;;;;;11.73;6.82;;;9.10;99.90;;;;;;5039203;28;20053;-67
2021/10/14 02:17:08;;;;;;;12.40;9.48;;;9.10;99.90;;;;;;5039672;28;20021;-67
2021/10/14 02:19:36;;;;;;;14.70;10.10;;;9.10;99.90;;;;;;5039561;28;20448;-67
2021/10/14 02:22:03;;;;;;;14.23;10.48;;;9.10;99.90;;;;;;5039547;28;20072;-67
2021/10/14 02:24:31;;;;;;;14.48;9.77;;;9.10;99.90;;;;;;5040507;28;20021;-67
2021/10/14 02:26:58;;;;;;;12.88;9.20;;;9.10;99.90;;;;;;5039029;28;20087;-67
2021/10/14 02:29:26;;;;;;;11.23;8.23;;;9.10;99.90;;;;;;5039615;28;20060;-67
2021/10/14 02:31:54;;;;;;;11.95;8.50;;;9.00;99.90;;;;;;5040330;28;20060;-67
2021/10/14 02:34:21;;;;;;;13.73;8.73;;;9.00;99.90;;;;;;5039676;28;20466;-67
2021/10/14 02:36:49;;;;;;;12.18;8.32;;;9.00;99.90;;;;;;5039736;28;20026;-67
2021/10/14 02:39:16;;;;;;;12.82;8.07;;;9.00;99.90;;;;;;5040137;28;20033;-67
2021/10/14 02:41:43;;;;;;;19.25;11.88;;;8.90;99.90;;;;;;5039121;28;20057;-67
2021/10/14 02:44:10;;;;;;;23.65;13.50;;;8.90;99.90;;;;;;5039209;28;20398;-67
2021/10/14 02:46:37;;;;;;;20.02;11.73;;;8.90;99.90;;;;;;5038962;28;20025;-67
2021/10/14 02:49:05;;;;;;;24.05;12.65;;;8.90;99.90;;;;;;5038390;28;20148;-68
2021/10/14 02:51:33;;;;;;;24.33;15.60;;;8.90;99.90;;;;;;5038288;28;20112;-67
2021/10/14 02:54:00;;;;;;;21.15;11.73;;;8.90;99.90;;;;;;5039027;28;20025;-67
2021/10/14 02:56:28;;;;;;;31.10;15.85;;;8.90;99.90;;;;;;5038570;28;20021;-67
2021/10/14 02:58:55;;;;;;;35.03;17.65;;;8.90;99.90;;;;;;5037281;28;20101;-67
2021/10/14 03:01:22;;;;;;;50.55;19.42;;;8.90;99.90;;;;;;5038342;28;20022;-67
2021/10/14 03:03:50;;;;;;;17.75;9.65;;;8.90;99.90;;;;;;5037357;28;20400;-67
2021/10/14 03:06:17;;;;;;;21.20;14.48;;;8.90;99.90;;;;;;5038234;28;20033;-67
2021/10/14 03:08:44;;;;;;;21.92;14.25;;;8.90;99.90;;;;;;5039003;28;20025;-67
2021/10/14 03:11:12;;;;;;;22.73;13.77;;;8.90;99.90;;;;;;5039609;28;20020;-67
2021/10/14 03:13:39;;;;;;;19.88;14.27;;;8.90;99.90;;;;;;5039542;28;20072;-67
2021/10/14 03:16:07;;;;;;;22.80;15.05;;;8.90;99.90;;;;;;5039576;28;20075;-67
2021/10/14 03:18:37;;;;;;;23.50;14.05;;;8.90;99.90;;;;;;5038893;28;20022;-67
2021/10/14 03:21:05;;;;;;;22.33;13.25;;;8.90;99.90;;;;;;5037912;28;20026;-67
2021/10/14 03:23:32;;;;;;;19.45;12.70;;;8.90;99.90;;;;;;5037192;28;20057;-67
2021/10/14 03:26:02;;;;;;;25.33;15.73;;;8.90;99.90;;;;;;5037872;28;20128;-67
2021/10/14 03:28:31;;;;;;;25.55;13.38;;;8.90;99.90;;;;;;5037523;28;20033;-67
2021/10/14 03:30:59;;;;;;;25.02;15.07;;;8.90;99.90;;;;;;5037746;28;20025;-67
2021/10/14 03:33:26;;;;;;;30.60;17.08;;;8.90;99.90;;;;;;5038205;28;20021;-68
2021/10/14 03:35:54;;;;;;;30.67;17.45;;;8.90;99.90;;;;;;5037606;28;20056;-67
2021/10/14 03:38:22;;;;;;;25.42;14.95;;;9.00;99.90;;;;;;5037727;28;20121;-68
2021/10/14 03:40:49;;;;;;;25.20;14.88;;;9.00;99.90;;;;;;5037614;28;20027;-67
2021/10/14 03:43:16;;;;;;;28.42;16.55;;;9.00;99.90;;;;;;5038035;28;20390;-67
2021/10/14 03:45:44;;;;;;;26.27;15.60;;;9.00;99.90;;;;;;5037710;28;20061;-67
2021/10/14 03:48:11;;;;;;;24.70;14.23;;;9.00;99.90;;;;;;5038326;28;20017;-67
2021/10/14 03:50:38;;;;;;;35.40;17.30;;;9.00;99.90;;;;;;5037142;28;20426;-67
2021/10/14 03:53:06;;;;;;;30.42;17.48;;;9.00;99.90;;;;;;5038411;28;20403;-67
2021/10/14 03:55:33;;;;;;;29.60;16.40;;;9.00;99.90;;;;;;5037121;28;20022;-67
2021/10/14 03:58:00;;;;;;;24.30;14.43;;;9.00;99.90;;;;;;5037081;28;20025;-67
2021/10/14 04:00:28;;;;;;;30.80;18.33;;;9.10;99.90;;;;;;5038685;28;20067;-67
2021/10/14 04:02:55;;;;;;;27.48;15.75;;;9.10;99.90;;;;;;5037181;28;20053;-67
2021/10/14 04:05:23;;;;;;;23.95;14.43;;;9.10;99.90;;;;;;5037464;28;20478;-67
2021/10/14 04:07:50;;;;;;;26.98;14.05;;;9.10;99.90;;;;;;5037672;28;20028;-67
2021/10/14 04:10:19;;;;;;;21.08;13.00;;;9.10;99.90;;;;;;5036951;28;20025;-67
2021/10/14 04:12:47;;;;;;;19.73;11.38;;;9.10;99.90;;;;;;5037715;28;20029;-67
2021/10/14 04:15:15;;;;;;;17.80;11.98;;;9.10;99.90;;;;;;5036928;28;20067;-67
2021/10/14 04:17:43;;;;;;;17.85;11.70;;;9.10;99.90;;;;;;5036896;28;20025;-67
2021/10/14 04:20:11;;;;;;;17.70;10.77;;;9.10;99.90;;;;;;5035912;28;20303;-67
2021/10/14 04:22:39;;;;;;;16.42;10.50;;;9.10;99.90;;;;;;5037495;28;20025;-67
2021/10/14 04:25:07;;;;;;;18.02;11.65;;;9.10;99.90;;;;;;5036819;28;20032;-67
2021/10/14 04:27:34;;;;;;;18.08;10.13;;;9.20;99.90;;;;;;5037506;28;20034;-67
2021/10/14 04:30:02;;;;;;;17.40;11.70;;;9.20;99.90;;;;;;5038102;28;20026;-67
2021/10/14 04:32:30;;;;;;;18.13;11.25;;;9.20;99.90;;;;;;5037956;28;20025;-67
2021/10/14 04:34:57;;;;;;;17.23;10.90;;;9.20;99.90;;;;;;5037426;28;20049;-67
2021/10/14 04:37:24;;;;;;;17.90;10.65;;;9.20;99.90;;;;;;5038009;28;20022;-67
2021/10/14 04:39:51;;;;;;;19.02;12.15;;;9.20;99.90;;;;;;5036429;28;20116;-67
2021/10/14 04:42:19;;;;;;;17.40;12.52;;;9.20;99.90;;;;;;5037874;28;20322;-67
2021/10/14 04:44:46;;;;;;;24.67;13.88;;;9.20;99.90;;;;;;5037942;28;20037;-67
2021/10/14 04:47:18;;;;;;;25.90;14.52;;;9.20;99.90;;;;;;5036239;28;20030;-67
2021/10/14 04:49:47;;;;;;;25.27;14.02;;;9.20;99.90;;;;;;5035849;28;20369;-67
2021/10/14 04:52:15;;;;;;;24.67;15.65;;;9.20;99.90;;;;;;5036562;28;20028;-67
2021/10/14 04:54:44;;;;;;;26.38;16.48;;;9.20;99.90;;;;;;5036387;28;20045;-67
2021/10/14 04:57:11;;;;;;;25.02;14.82;;;9.30;99.90;;;;;;5035300;28;20021;-67
2021/10/14 04:59:40;;;;;;;29.77;17.45;;;9.20;99.90;;;;;;5036908;28;20056;-67
2021/10/14 05:02:07;;;;;;;31.55;18.77;;;9.30;99.90;;;;;;5036518;28;20100;-67
2021/10/14 05:04:35;;;;;;;29.55;17.58;;;9.30;99.90;;;;;;5036353;28;20128;-67
2021/10/14 05:07:03;;;;;;;28.55;17.92;;;9.30;99.90;;;;;;5036808;28;20435;-67
2021/10/14 05:09:30;;;;;;;28.55;15.98;;;9.30;99.90;;;;;;5036412;28;20398;-67
2021/10/14 05:11:57;;;;;;;31.30;19.35;;;9.30;99.90;;;;;;5037185;28;20017;-67
2021/10/14 05:14:25;;;;;;;29.23;18.60;;;9.30;99.90;;;;;;5037109;28;20021;-67
2021/10/14 05:16:53;;;;;;;29.05;18.73;;;9.30;99.90;;;;;;5037738;28;20100;-67
2021/10/14 05:19:21;;;;;;;33.47;19.80;;;9.30;99.90;;;;;;5037090;28;20022;-67
2021/10/14 05:21:49;;;;;;;33.03;19.10;;;9.40;99.90;;;;;;5037813;28;20108;-67
2021/10/14 05:24:17;;;;;;;30.20;18.70;;;9.40;99.90;;;;;;5037578;28;20067;-71
2021/10/14 05:26:44;;;;;;;31.08;18.60;;;9.40;99.90;;;;;;5037061;28;20040;-72
2021/10/14 05:29:12;;;;;;;29.33;18.20;;;9.40;99.90;;;;;;5037455;28;20075;-71
2021/10/14 05:31:40;;;;;;;32.30;19.45;;;9.40;99.90;;;;;;5036814;28;20022;-71
2021/10/14 05:34:09;;;;;;;31.15;18.17;;;9.40;99.90;;;;;;5036556;28;20018;-72
2021/10/14 05:36:37;;;;;;;33.83;19.02;;;9.40;99.90;;;;;;5036622;28;20122;-71
2021/10/14 05:39:05;;;;;;;35.10;20.10;;;9.40;99.90;;;;;;5035934;28;20029;-71
2021/10/14 05:41:32;;;;;;;36.00;20.15;;;9.40;99.90;;;;;;5036724;28;20105;-71
2021/10/14 05:44:00;;;;;;;40.72;21.50;;;9.40;99.90;;;;;;5036559;28;20022;-71
2021/10/14 05:46:28;;;;;;;42.67;21.95;;;9.40;99.90;;;;;;5036018;28;20049;-69
2021/10/14 05:48:55;;;;;;;45.35;21.38;;;9.40;99.90;;;;;;5035160;28;20053;-68
2021/10/14 05:51:23;;;;;;;42.50;20.98;;;9.50;99.90;;;;;;5036025;28;20021;-68
2021/10/14 05:53:50;;;;;;;41.00;21.90;;;9.40;99.90;;;;;;5037381;28;20024;-68
2021/10/14 05:56:18;;;;;;;43.40;23.25;;;9.40;99.90;;;;;;5036838;28;20068;-69
2021/10/14 05:58:45;;;;;;;37.97;19.75;;;9.40;99.90;;;;;;5037299;28;20037;-68
2021/10/14 06:01:12;;;;;;;49.50;22.35;;;9.50;99.90;;;;;;5039045;28;20398;-68
2021/10/14 06:03:40;;;;;;;46.03;22.30;;;9.50;99.90;;;;;;5040074;28;20429;-70
2021/10/14 06:06:07;;;;;;;50.40;23.25;;;9.50;99.90;;;;;;5040888;28;20441;-69
2021/10/14 06:08:35;;;;;;;51.38;22.90;;;9.50;99.90;;;;;;5040712;28;20026;-69
2021/10/14 06:11:02;;;;;;;44.40;22.58;;;9.50;99.90;;;;;;5040167;28;20390;-69
2021/10/14 06:13:29;;;;;;;51.35;23.40;;;9.50;99.90;;;;;;5039461;28;20029;-70
2021/10/14 06:15:58;;;;;;;45.45;21.17;;;9.50;99.90;;;;;;5039458;28;20013;-69
2021/10/14 06:18:26;;;;;;;41.22;17.23;;;9.50;99.90;;;;;;5039143;28;20017;-69
2021/10/14 06:20:54;;;;;;;58.22;25.10;;;9.50;99.90;;;;;;5037984;28;20017;-68
2021/10/14 06:23:21;;;;;;;55.28;22.40;;;9.50;99.90;;;;;;5039789;28;20406;-69
2021/10/14 06:25:48;;;;;;;58.03;25.95;;;9.50;99.90;;;;;;5039624;28;20040;-69
2021/10/14 06:28:16;;;;;;;66.47;25.23;;;9.50;99.90;;;;;;5039002;28;20021;-69
2021/10/14 06:30:43;;;;;;;61.70;23.95;;;9.50;99.90;;;;;;5039452;28;20021;-67
2021/10/14 06:33:10;;;;;;;56.58;22.83;;;9.50;99.90;;;;;;5039770;28;20022;-67
2021/10/14 06:35:38;;;;;;;56.00;23.52;;;9.50;99.90;;;;;;5038529;28;20028;-66
2021/10/14 06:38:06;;;;;;;49.55;21.73;;;9.50;99.90;;;;;;5040284;28;20075;-66
2021/10/14 06:40:34;;;;;;;42.17;19.58;;;9.60;99.90;;;;;;5038530;28;20030;-67
2021/10/14 06:43:01;;;;;;;51.78;21.33;;;9.60;99.90;;;;;;5039867;28;20022;-68
2021/10/14 06:45:29;;;;;;;41.70;18.17;;;9.60;99.90;;;;;;5040241;28;20283;-67
2021/10/14 06:47:57;;;;;;;42.33;18.45;;;9.60;99.90;;;;;;5040541;28;20356;-67
2021/10/14 06:50:24;;;;;;;35.20;16.95;;;9.70;99.90;;;;;;5039335;28;20330;-67
2021/10/14 06:52:52;;;;;;;39.40;17.38;;;9.70;99.90;;;;;;5039839;28;20017;-67
2021/10/14 06:55:19;;;;;;;35.83;15.80;;;9.70;99.90;;;;;;5038477;28;20028;-67
2021/10/14 06:57:46;;;;;;;34.33;16.17;;;9.80;99.90;;;;;;5037368;28;20422;-67
2021/10/14 07:00:15;;;;;;;33.95;15.75;;;9.70;99.90;;;;;;5038952;28;20025;-67
2021/10/14 07:02:42;;;;;;;31.90;15.32;;;9.70;99.90;;;;;;5038459;28;20040;-69
2021/10/14 07:05:09;;;;;;;34.75;15.63;;;9.80;99.90;;;;;;5036821;28;20084;-67
2021/10/14 07:07:37;;;;;;;33.08;14.77;;;9.80;99.90;;;;;;5038851;28;20049;-67
2021/10/14 07:10:07;;;;;;;23.63;12.98;;;9.80;99.90;;;;;;5038041;28;20032;-67
2021/10/14 07:12:38;;;;;;;24.38;12.73;;;9.80;99.90;;;;;;5038734;28;20025;-67
2021/10/14 07:15:07;;;;;;;25.27;12.15;;;9.80;99.90;;;;;;5038943;28;20022;-67
2021/10/14 07:17:35;;;;;;;23.13;12.05;;;9.80;99.90;;;;;;5039559;28;20025;-67
2021/10/14 07:20:04;;;;;;;27.60;12.73;;;9.80;99.90;;;;;;5039127;28;20418;-67
2021/10/14 07:22:31;;;;;;;25.05;11.50;;;9.90;99.90;;;;;;5037787;28;20398;-67
2021/10/14 07:24:59;;;;;;;24.55;11.43;;;9.90;99.90;;;;;;5039022;28;20407;-67
2021/10/14 07:27:27;;;;;;;21.23;10.88;;;9.90;99.90;;;;;;5039239;28;20040;-67
2021/10/14 07:29:54;;;;;;;18.20;9.38;;;10.00;99.90;;;;;;5038623;28;20372;-67
2021/10/14 07:32:23;;;;;;;15.95;8.68;;;10.00;99.90;;;;;;5038784;28;20028;-67
2021/10/14 07:34:51;;;;;;;18.55;9.27;;;10.10;99.90;;;;;;5038240;28;20017;-67
2021/10/14 07:37:19;;;;;;;16.52;9.20;;;10.10;99.90;;;;;;5036727;28;20029;-67
2021/10/14 07:39:47;;;;;;;18.02;9.70;;;10.10;99.90;;;;;;5038152;28;20361;-67
2021/10/14 07:42:15;;;;;;;17.95;9.52;;;10.10;99.90;;;;;;5037616;28;20026;-67
2021/10/14 07:44:42;;;;;;;19.50;10.05;;;10.10;99.90;;;;;;5037492;28;20029;-67
2021/10/14 07:47:10;;;;;;;18.23;10.02;;;10.20;99.90;;;;;;5037645;28;20025;-67
2021/10/14 07:49:38;;;;;;;19.42;10.77;;;10.20;99.90;;;;;;5037284;28;20021;-67
2021/10/14 07:52:05;;;;;;;19.35;9.63;;;10.20;99.90;;;;;;5037439;28;20113;-67
2021/10/14 07:54:33;;;;;;;19.30;10.55;;;10.20;99.90;;;;;;5037312;28;20377;-67
2021/10/14 07:57:01;;;;;;;17.77;10.23;;;10.20;99.90;;;;;;5037219;28;20025;-67
2021/10/14 07:59:29;;;;;;;18.58;9.35;;;10.30;99.90;;;;;;5037091;28;20021;-67
2021/10/14 08:01:57;;;;;;;19.45;9.48;;;10.30;99.90;;;;;;5038927;28;20071;-67
2021/10/14 08:04:25;;;;;;;17.55;9.63;;;10.30;99.90;;;;;;5037934;28;20345;-66
2021/10/14 08:06:52;;;;;;;21.67;9.38;;;10.40;99.90;;;;;;5037156;28;20030;-67
2021/10/14 08:09:20;;;;;;;16.77;9.00;;;10.40;99.90;;;;;;5038159;28;20060;-67
2021/10/14 08:11:47;;;;;;;15.20;9.48;;;10.50;99.90;;;;;;5037885;28;20029;-67
2021/10/14 08:14:14;;;;;;;17.23;9.52;;;10.50;99.90;;;;;;5036784;28;20055;-66
2021/10/14 08:16:43;;;;;;;16.55;10.05;;;10.50;99.90;;;;;;5037190;28;20017;-67
2021/10/14 08:19:10;;;;;;;13.25;8.13;;;10.50;99.90;;;;;;5036891;28;20033;-67
2021/10/14 08:21:38;;;;;;;12.88;7.45;;;10.50;99.90;;;;;;5036974;28;20109;-67
2021/10/14 08:24:05;;;;;;;14.05;6.78;;;10.50;99.90;;;;;;5036368;28;20033;-67
2021/10/14 08:26:33;;;;;;;12.05;6.93;;;10.50;99.90;;;;;;5036979;28;20426;-67
2021/10/14 08:29:01;;;;;;;10.50;6.22;;;10.50;99.90;;;;;;5037223;28;20080;-67
2021/10/14 08:31:28;;;;;;;9.35;4.90;;;10.40;99.90;;;;;;5036795;28;20024;-67
2021/10/14 08:33:55;;;;;;;9.77;5.45;;;10.40;99.90;;;;;;5037217;28;20021;-66
2021/10/14 08:36:23;;;;;;;9.25;5.40;;;10.40;99.90;;;;;;5036618;28;20374;-67
2021/10/14 08:38:50;;;;;;;8.90;5.10;;;10.50;99.90;;;;;;5036518;28;20021;-66
2021/10/14 08:41:19;;;;;;;10.15;5.38;;;10.50;99.90;;;;;;5038033;28;20410;-66
2021/10/14 08:43:47;;;;;;;7.38;4.45;;;10.60;99.90;;;;;;5037746;28;20033;-66
2021/10/14 08:46:16;;;;;;;7.50;3.95;;;10.70;99.90;;;;;;5037709;28;20368;-66
2021/10/14 08:48:44;;;;;;;5.35;3.28;;;10.70;99.90;;;;;;5037848;28;20108;-66
2021/10/14 08:51:12;;;;;;;5.78;3.45;;;10.80;99.90;;;;;;5037581;28;20322;-66
2021/10/14 08:53:40;;;;;;;5.68;2.75;;;10.80;99.90;;;;;;5037872;28;20025;-66
2021/10/14 08:56:08;;;;;;;4.50;2.55;;;10.90;99.90;;;;;;5035889;28;20053;-67
2021/10/14 08:58:36;;;;;;;4.65;2.38;;;10.90;99.90;;;;;;5036434;28;20013;-66
2021/10/14 09:01:09;;;;;;;5.63;3.05;;;11.00;99.90;;;;;;5036514;28;20021;-68
2021/10/14 09:03:41;;;;;;;4.80;2.63;;;11.00;99.90;;;;;;5036378;28;20018;-67
2021/10/14 09:06:10;;;;;;;4.15;2.22;;;10.90;99.90;;;;;;5036910;28;20091;-69
2021/10/14 09:08:43;;;;;;;6.93;3.25;;;10.90;99.90;;;;;;5036207;28;20025;-67
2021/10/14 09:11:16;;;;;;;6.13;4.20;;;10.90;99.90;;;;;;5036454;28;20022;-67
2021/10/14 09:13:51;;;;;;;8.38;4.50;;;11.00;99.90;;;;;;5036234;28;20036;-68
2021/10/14 09:16:32;;;;;;;12.65;4.82;;;10.90;99.90;;;;;;5035763;28;20084;-69
2021/10/14 09:19:18;;;;;;;8.32;4.60;;;11.00;99.90;;;;;;5036789;28;20080;-69
2021/10/14 09:21:52;;;;;;;9.20;4.97;;;11.00;99.90;;;;;;5037220;28;20026;-68
2021/10/14 09:24:35;;;;;;;10.25;5.47;;;11.00;99.90;;;;;;5037765;28;20315;-67
2021/10/14 09:27:08;;;;;;;11.88;6.22;;;11.00;99.90;;;;;;5037078;28;20444;-67
2021/10/14 09:29:38;;;;;;;13.75;7.13;;;11.00;99.90;;;;;;5037474;28;20029;-68
2021/10/14 09:32:18;;;;;;;12.10;6.45;;;11.00;99.90;;;;;;5037653;28;20025;-69
2021/10/14 09:34:47;;;;;;;12.25;6.47;;;11.00;99.90;;;;;;5037882;28;20028;-69
2021/10/14 09:37:17;;;;;;;16.38;7.75;;;11.00;99.90;;;;;;5039641;28;20429;-68
2021/10/14 09:40:03;;;;;;;14.30;7.55;;;11.00;99.90;;;;;;5040441;28;20025;-68
2021/10/14 09:42:41;;;;;;;20.48;9.20;;;11.00;99.90;;;;;;5038937;28;20030;-68
2021/10/14 09:45:33;;;;;;;16.20;9.13;;;11.10;99.90;;;;;;5038565;28;20029;-68
2021/10/14 09:48:15;;;;;;;14.05;8.63;;;11.10;99.90;;;;;;5038639;28;20029;-67
2021/10/14 09:50:45;;;;;;;16.00;8.00;;;11.20;99.90;;;;;;5039677;28;20057;-67
2021/10/14 09:53:15;;;;;;;16.00;7.82;;;11.20;99.90;;;;;;5038798;28;20052;-67
2021/10/14 09:55:43;;;;;;;16.08;7.32;;;11.20;99.90;;;;;;5038549;28;20025;-68
2021/10/14 09:58:10;;;;;;;9.35;5.53;;;11.20;99.90;;;;;;5040117;28;20029;-68
2021/10/14 10:00:39;;;;;;;11.95;6.80;;;11.30;99.90;;;;;;5040492;28;20033;-67
2021/10/14 10:03:10;;;;;;;12.93;6.35;;;11.30;99.90;;;;;;5040561;28;20026;-67
2021/10/14 10:05:46;;;;;;;13.90;7.72;;;11.30;99.90;;;;;;5040117;28;20132;-67
2021/10/14 10:08:42;;;;;;;12.25;7.68;;;11.30;99.90;;;;;;5040912;28;20369;-68
2021/10/14 10:11:16;;;;;;;12.88;7.22;;;11.30;99.90;;;;;;5040277;28;20029;-67
2021/10/14 10:13:53;;;;;;;12.95;7.22;;;11.30;99.90;;;;;;5039150;28;20433;-66
2021/10/14 10:16:27;;;;;;;16.85;8.13;;;11.30;99.90;;;;;;5039194;28;20427;-67
2021/10/14 10:19:00;;;;;;;13.35;7.35;;;11.30;99.90;;;;;;5039538;28;20029;-67
2021/10/14 10:21:33;;;;;;;17.92;8.10;;;11.30;99.90;;;;;;5039132;28;20021;-67
2021/10/14 10:24:05;;;;;;;16.83;8.43;;;11.40;99.90;;;;;;5038021;28;20119;-67
2021/10/14 10:26:36;;;;;;;15.60;8.70;;;11.40;99.90;;;;;;5039211;28;20026;-67
2021/10/14 10:29:14;;;;;;;15.85;8.40;;;11.40;99.90;;;;;;5037853;28;20099;-66
2021/10/14 10:31:55;;;;;;;15.00;8.98;;;11.50;99.90;;;;;;5039522;28;20079;-67
2021/10/14 10:37:13;;;;;;;19.00;9.80;;;11.50;99.90;;;;;;5038985;28;20021;-67
2021/10/14 10:39:58;;;;;;;24.73;10.45;;;11.60;99.90;;;;;;5039309;28;20036;-67
2021/10/14 10:42:25;;;;;;;24.52;10.43;;;11.60;99.90;;;;;;5040160;28;20025;-67
2021/10/14 10:44:53;;;;;;;23.00;9.45;;;11.50;99.90;;;;;;5040183;28;20099;-67
2021/10/14 10:47:42;;;;;;;28.70;13.32;;;11.50;99.90;;;;;;5039469;28;20025;-68
2021/10/14 10:50:17;;;;;;;29.50;12.60;;;11.50;99.90;;;;;;5039406;28;20073;-68
2021/10/14 10:52:47;;;;;;;33.13;14.35;;;11.50;99.90;;;;;;5039426;28;20405;-68
2021/10/14 10:55:15;;;;;;;26.20;13.13;;;11.50;99.90;;;;;;5039428;28;20036;-68
2021/10/14 10:57:53;;;;;;;30.13;14.40;;;11.50;99.90;;;;;;5040083;28;20026;-67
2021/10/14 11:00:22;;;;;;;30.95;15.40;;;11.60;99.90;;;;;;5039106;28;20299;-67
2021/10/14 11:03:15;;;;;;;34.00;15.80;;;11.60;99.90;;;;;;5038866;28;20030;-68
2021/10/14 11:05:55;;;;;;;36.28;16.23;;;11.60;99.90;;;;;;5038049;28;20045;-68
2021/10/14 11:08:25;;;;;;;33.33;15.77;;;11.70;99.90;;;;;;5038868;28;20104;-68
2021/10/14 11:10:56;;;;;;;38.55;17.63;;;11.70;99.90;;;;;;5038119;28;20080;-68
2021/10/14 11:13:25;;;;;;;40.90;19.05;;;11.80;99.90;;;;;;5038246;28;20017;-68
2021/10/14 11:15:58;;;;;;;40.00;18.13;;;11.90;99.90;;;;;;5038189;28;20104;-68
2021/10/14 11:18:28;;;;;;;39.88;18.73;;;12.10;99.90;;;;;;5038141;28;20033;-68
2021/10/14 11:21:05;;;;;;;35.38;16.48;;;12.20;99.90;;;;;;5038578;28;20028;-68
2021/10/14 11:23:42;;;;;;;44.30;20.27;;;12.30;99.90;;;;;;5037565;28;20422;-68
2021/10/14 11:26:46;;;;;;;36.28;18.15;;;12.40;99.90;;;;;;5038919;28;20036;-67
2021/10/14 11:29:28;;;;;;;37.53;18.20;;;12.50;99.90;;;;;;5038338;28;20390;-68
2021/10/14 11:32:10;;;;;;;37.60;19.25;;;12.50;99.90;;;;;;5038927;28;20429;-68
2021/10/14 11:34:40;;;;;;;45.47;19.58;;;12.40;99.90;;;;;;5038971;28;20030;-68
2021/10/14 11:37:12;;;;;;;39.72;18.00;;;12.30;99.90;;;;;;5038743;28;20018;-68
2021/10/14 11:39:43;;;;;;;40.60;20.50;;;12.30;99.90;;;;;;5038671;28;20441;-68
2021/10/14 11:42:21;;;;;;;40.25;20.02;;;12.20;99.90;;;;;;5038506;28;20333;-68
2021/10/14 11:44:58;;;;;;;41.70;20.33;;;12.20;99.90;;;;;;5038194;28;20410;-68
2021/10/14 11:47:25;;;;;;;43.63;20.15;;;12.20;99.90;;;;;;5037544;28;20053;-68
2021/10/14 11:50:07;;;;;;;44.42;20.25;;;12.20;99.90;;;;;;5037928;28;20061;-68
2021/10/14 11:52:35;;;;;;;43.03;20.65;;;12.20;99.90;;;;;;5037930;28;20017;-68
2021/10/14 11:55:07;;;;;;;41.15;20.98;;;12.10;99.90;;;;;;5037964;28;20049;-68
2021/10/14 11:57:36;;;;;;;37.28;20.42;;;12.10;99.90;;;;;;5035852;28;20045;-68
2021/10/14 12:00:05;;;;;;;42.92;20.30;;;12.10;99.90;;;;;;5037392;28;20382;-68
2021/10/14 12:02:33;;;;;;;39.33;19.80;;;12.00;99.90;;;;;;5037773;28;20029;-68
2021/10/14 12:05:02;;;;;;;35.13;19.40;;;12.00;99.90;;;;;;5037624;28;20077;-68
2021/10/14 12:07:32;;;;;;;37.67;20.08;;;12.00;99.90;;;;;;5037060;28;20033;-68
2021/10/14 12:10:00;;;;;;;42.05;21.95;;;12.00;99.90;;;;;;5038195;28;20029;-68
2021/10/14 12:12:31;;;;;;;44.47;20.88;;;12.00;99.90;;;;;;5038183;28;20067;-68
2021/10/14 12:15:07;;;;;;;42.85;19.95;;;12.00;99.90;;;;;;5036894;28;20018;-67
2021/10/14 12:17:46;;;;;;;38.28;19.20;;;12.00;99.90;;;;;;5038017;28;20022;-68
2021/10/14 12:20:18;;;;;;;34.55;17.45;;;12.00;99.90;;;;;;5038011;28;20085;-68
2021/10/14 12:22:54;;;;;;;33.58;16.95;;;12.10;99.90;;;;;;5037846;28;20021;-68
2021/10/14 12:25:37;;;;;;;38.30;21.25;;;12.10;99.90;;;;;;5037478;28;20053;-68
2021/10/14 12:28:06;;;;;;;41.00;21.90;;;12.20;99.90;;;;;;5036855;28;20080;-68
2021/10/14 12:30:39;;;;;;;35.38;19.77;;;12.20;99.90;;;;;;5037031;28;20033;-68
2021/10/14 12:33:12;;;;;;;38.67;19.85;;;12.30;99.90;;;;;;5035887;28;20021;-68
2021/10/14 12:35:43;;;;;;;41.45;20.75;;;12.30;99.90;;;;;;5037442;28;20025;-68
2021/10/14 12:38:13;;;;;;;39.60;20.52;;;12.30;99.90;;;;;;5036925;28;20104;-68
2021/10/14 12:41:02;;;;;;;36.50;18.05;;;12.30;99.90;;;;;;5036705;28;20414;-68
2021/10/14 12:43:51;;;;;;;43.75;21.90;;;12.20;99.90;;;;;;5019020;28;20090;-68
2021/10/14 12:51:52;;;;;;;36.92;21.02;;;12.10;99.90;;;;;;5037749;28;20021;-68
2021/10/14 12:54:23;;;;;;;39.85;21.05;;;12.00;99.90;;;;;;5038291;28;20346;-68
2021/10/14 12:56:57;;;;;;;42.20;21.83;;;12.00;99.90;;;;;;5037602;28;20032;-68
2021/10/14 12:59:28;;;;;;;39.50;22.33;;;12.00;99.90;;;;;;5036313;28;20025;-68